Time;durP1;ratioP1;P1;durP2;ratioP2;P2;SDS_P1;SDS_P2;PMS_P1;PMS_P2;Temp;Humidity;BMP_temperature;BMP_pressure;BME280_temperature;BME280_humidity;BME280_pressure;Samples;Min_cycle;Max_cycle;Signal;HPM_P1;HPM_P2
2022/12/08 00:02:18;;;;;;;9.73;6.43;;;;;;;;;;4962207;28;20237;-81
2022/12/08 00:10:56;;;;;;;5.90;5.40;;;;;;;;;;4978745;28;20236;-83
2022/12/08 00:13:22;;;;;;;6.80;5.97;;;;;;;;;;4985298;28;20229;-84
2022/12/08 00:15:50;;;;;;;6.30;5.53;;;;;;;;;;4978544;28;20221;-87
2022/12/08 00:18:15;;;;;;;6.57;5.87;;;;;;;;;;4955986;28;20237;-84
2022/12/08 00:20:41;;;;;;;5.37;4.87;;;;;;;;;;4950333;28;20222;-81
2022/12/08 00:23:06;;;;;;;5.77;5.27;;;;;;;;;;4983354;28;20246;-85
2022/12/08 00:25:37;;;;;;;5.33;4.93;;;;;;;;;;4986943;28;20228;-82
2022/12/08 00:28:05;;;;;;;6.07;5.57;;;;;;;;;;4948415;28;20226;-80
2022/12/08 00:30:33;;;;;;;12.23;5.87;;;;;;;;;;4988447;28;20641;-83
2022/12/08 00:32:58;;;;;;;6.00;5.17;;;;;;;;;;4979552;28;20229;-88
2022/12/08 00:35:24;;;;;;;5.87;5.37;;;;;;;;;;4978167;28;20222;-86
2022/12/08 00:37:51;;;;;;;5.60;4.90;;;;;;;;;;4947462;28;20588;-85
2022/12/08 00:40:17;;;;;;;5.53;5.03;;;;;;;;;;4961919;28;20241;-84
2022/12/08 00:42:43;;;;;;;6.90;5.87;;;;;;;;;;4954229;28;20230;-83
2022/12/08 00:45:13;;;;;;;6.33;5.73;;;;;;;;;;4979601;28;20242;-85
2022/12/08 00:47:39;;;;;;;5.63;5.17;;;;;;;;;;4964321;28;20228;-87
2022/12/08 00:50:05;;;;;;;6.07;5.50;;;;;;;;;;4968852;28;20226;-86
2022/12/08 00:52:31;;;;;;;5.97;5.43;;;;;;;;;;4977498;28;20233;-86
2022/12/08 00:54:57;;;;;;;5.97;5.37;;;;;;;;;;4966394;28;20709;-82
2022/12/08 00:57:28;;;;;;;5.43;4.93;;;;;;;;;;4960260;28;20277;-84
2022/12/08 00:59:53;;;;;;;6.20;5.50;;;;;;;;;;4959992;28;20726;-85
2022/12/08 01:02:21;;;;;;;6.23;5.63;;;;;;;;;;4944830;28;20294;-86
2022/12/08 01:04:49;;;;;;;5.50;5.10;;;;;;;;;;4949964;28;20397;-83
2022/12/08 01:07:35;;;;;;;6.40;5.80;;;;;;;;;;4939007;28;20226;-83
2022/12/08 01:10:05;;;;;;;6.13;5.53;;;;;;;;;;4991721;28;20242;-82
2022/12/08 01:12:33;;;;;;;6.53;5.93;;;;;;;;;;4963064;28;20257;-81
2022/12/08 01:14:58;;;;;;;5.63;5.13;;;;;;;;;;4978660;28;20306;-82
2022/12/08 01:17:24;;;;;;;6.23;5.63;;;;;;;;;;4974605;28;20234;-84
2022/12/08 01:19:49;;;;;;;7.50;5.33;;;;;;;;;;4985622;28;20226;-84
2022/12/08 01:22:18;;;;;;;6.17;5.67;;;;;;;;;;4965621;28;20226;-82
2022/12/08 01:24:49;;;;;;;8.47;5.70;;;;;;;;;;4981399;28;20304;-82
2022/12/08 01:27:21;;;;;;;6.33;5.60;;;;;;;;;;4946408;28;20240;-80
2022/12/08 01:29:47;;;;;;;8.73;5.13;;;;;;;;;;4988464;28;20272;-82
2022/12/08 01:32:14;;;;;;;7.30;5.37;;;;;;;;;;4977569;28;20597;-86
2022/12/08 01:34:42;;;;;;;5.93;5.27;;;;;;;;;;4992934;28;20759;-83
2022/12/08 01:37:08;;;;;;;5.97;5.40;;;;;;;;;;4975138;28;20280;-84
2022/12/08 01:39:40;;;;;;;6.30;5.30;;;;;;;;;;4969612;28;20683;-82
2022/12/08 01:42:09;;;;;;;6.63;5.20;;;;;;;;;;4974207;28;20251;-83
2022/12/08 01:44:37;;;;;;;5.60;5.07;;;;;;;;;;4960323;28;20229;-83
2022/12/08 01:47:02;;;;;;;5.40;5.00;;;;;;;;;;4960459;28;20210;-86
2022/12/08 01:49:30;;;;;;;5.83;5.33;;;;;;;;;;4934721;28;20761;-86
2022/12/08 01:52:01;;;;;;;7.53;5.47;;;;;;;;;;4958936;28;20218;-87
2022/12/08 01:54:31;;;;;;;5.50;5.03;;;;;;;;;;4992335;28;20222;-84
2022/12/08 01:57:05;;;;;;;5.73;5.27;;;;;;;;;;4969703;28;20215;-84
2022/12/08 01:59:32;;;;;;;6.90;6.00;;;;;;;;;;4965883;28;20287;-86
2022/12/08 02:02:00;;;;;;;6.37;5.87;;;;;;;;;;4975117;28;20234;-89
2022/12/08 02:04:25;;;;;;;6.70;6.00;;;;;;;;;;4948084;28;20222;-84
2022/12/08 02:06:51;;;;;;;6.60;6.07;;;;;;;;;;4974630;28;20312;-86
2022/12/08 02:09:19;;;;;;;6.50;5.80;;;;;;;;;;4932855;28;20226;-83
2022/12/08 02:11:45;;;;;;;6.00;5.50;;;;;;;;;;4955086;28;20238;-83
2022/12/08 02:14:12;;;;;;;8.17;5.63;;;;;;;;;;4966341;28;20246;-88
2022/12/08 02:17:09;;;;;;;7.10;5.33;;;;;;;;;;4980423;28;20233;-86
2022/12/08 02:19:57;;;;;;;9.60;5.40;;;;;;;;;;4965820;28;20684;-85
2022/12/08 02:22:30;;;;;;;5.90;5.40;;;;;;;;;;4980669;28;20445;-85
2022/12/08 02:25:14;;;;;;;6.03;5.47;;;;;;;;;;4981137;28;20398;-85
2022/12/08 02:27:58;;;;;;;6.50;5.60;;;;;;;;;;4949873;28;20235;-86
2022/12/08 02:30:53;;;;;;;5.17;4.77;;;;;;;;;;4955208;28;20230;-82
2022/12/08 02:33:43;;;;;;;5.63;5.13;;;;;;;;;;4946316;28;20226;-82
2022/12/08 02:36:14;;;;;;;5.90;4.80;;;;;;;;;;4977362;28;20232;-87
2022/12/08 02:38:43;;;;;;;5.97;5.23;;;;;;;;;;4955100;28;20353;-83
2022/12/08 02:41:22;;;;;;;5.70;5.10;;;;;;;;;;4986081;28;20607;-85
2022/12/08 02:44:06;;;;;;;4.93;4.63;;;;;;;;;;4979254;28;20241;-83
2022/12/08 02:46:51;;;;;;;6.83;5.17;;;;;;;;;;4941871;29;20230;-84
2022/12/08 02:49:20;;;;;;;5.60;5.13;;;;;;;;;;4957488;28;20245;-85
2022/12/08 02:51:46;;;;;;;6.33;5.73;;;;;;;;;;4942060;29;20219;-83
2022/12/08 02:54:14;;;;;;;7.90;5.47;;;;;;;;;;4957925;28;20213;-86
2022/12/08 02:56:52;;;;;;;6.37;5.70;;;;;;;;;;4949595;28;20233;-84
2022/12/08 03:00:05;;;;;;;6.57;4.93;;;;;;;;;;4992900;28;20218;-88
2022/12/08 03:02:53;;;;;;;5.83;5.23;;;;;;;;;;4920332;29;20271;-86
2022/12/08 03:05:39;;;;;;;7.80;5.33;;;;;;;;;;4873710;29;20658;-85
2022/12/08 03:08:12;;;;;;;5.53;5.03;;;;;;;;;;4951875;28;20853;-87
2022/12/08 03:10:37;;;;;;;4.97;4.57;;;;;;;;;;4948306;28;20230;-83
2022/12/08 03:13:24;;;;;;;5.03;4.57;;;;;;;;;;4992235;28;20281;-86
2022/12/08 03:15:50;;;;;;;5.23;4.60;;;;;;;;;;4963062;28;20277;-86
2022/12/08 03:18:18;;;;;;;4.47;4.07;;;;;;;;;;4946321;28;20230;-86
2022/12/08 03:20:44;;;;;;;4.90;4.47;;;;;;;;;;4979083;28;20246;-86
2022/12/08 03:23:13;;;;;;;4.23;3.83;;;;;;;;;;4960628;28;20222;-82
2022/12/08 03:25:54;;;;;;;5.17;4.77;;;;;;;;;;4960294;28;20246;-82
2022/12/08 03:28:19;;;;;;;4.60;4.20;;;;;;;;;;4971111;28;20612;-83
2022/12/08 03:30:45;;;;;;;5.00;4.53;;;;;;;;;;4974748;28;20222;-83
2022/12/08 03:33:33;;;;;;;4.67;4.33;;;;;;;;;;4945781;28;20225;-81
2022/12/08 03:36:00;;;;;;;5.20;4.77;;;;;;;;;;4970671;28;20301;-84
2022/12/08 03:38:39;;;;;;;6.03;4.67;;;;;;;;;;4961733;28;20221;-88
2022/12/08 03:41:19;;;;;;;6.00;5.53;;;;;;;;;;4983687;28;20226;-82
2022/12/08 03:43:46;;;;;;;5.90;5.27;;;;;;;;;;5001040;28;20784;-82
2022/12/08 03:46:12;;;;;;;6.27;5.43;;;;;;;;;;4988608;28;20769;-83
2022/12/08 03:48:43;;;;;;;6.43;5.83;;;;;;;;;;4976618;28;20218;-83
2022/12/08 03:51:08;;;;;;;6.10;5.60;;;;;;;;;;4961118;28;20229;-83
2022/12/08 03:53:36;;;;;;;6.50;5.97;;;;;;;;;;4977772;28;20599;-82
2022/12/08 03:56:06;;;;;;;8.20;6.80;;;;;;;;;;4989715;28;20337;-84
2022/12/08 03:58:31;;;;;;;7.37;6.63;;;;;;;;;;4944558;28;20229;-86
2022/12/08 04:00:57;;;;;;;6.50;6.00;;;;;;;;;;4992207;28;20238;-86
2022/12/08 04:03:25;;;;;;;6.83;6.30;;;;;;;;;;4942325;28;20238;-87
2022/12/08 04:05:51;;;;;;;8.03;7.23;;;;;;;;;;4960594;28;20264;-85
2022/12/08 04:08:17;;;;;;;7.17;6.57;;;;;;;;;;4943451;28;20214;-85
2022/12/08 04:10:42;;;;;;;7.43;6.73;;;;;;;;;;4947987;28;20271;-82
2022/12/08 04:13:08;;;;;;;7.47;6.87;;;;;;;;;;4934508;28;20624;-84
2022/12/08 04:15:33;;;;;;;7.80;7.10;;;;;;;;;;4966590;28;20589;-86
2022/12/08 04:18:06;;;;;;;7.20;6.53;;;;;;;;;;4961924;28;20218;-83
2022/12/08 04:20:38;;;;;;;7.60;6.90;;;;;;;;;;4923542;28;20233;-85
2022/12/08 04:23:04;;;;;;;7.50;6.80;;;;;;;;;;4936377;28;20237;-84
2022/12/08 04:25:34;;;;;;;7.00;6.40;;;;;;;;;;4963448;28;20230;-87
2022/12/08 04:28:02;;;;;;;7.23;6.57;;;;;;;;;;4939885;28;20242;-85
2022/12/08 04:30:27;;;;;;;7.53;6.90;;;;;;;;;;4953550;28;20227;-86
2022/12/08 04:32:53;;;;;;;7.77;7.13;;;;;;;;;;4933107;28;20840;-84
2022/12/08 04:35:18;;;;;;;7.47;6.90;;;;;;;;;;4938201;28;20702;-83
2022/12/08 04:37:44;;;;;;;7.77;6.77;;;;;;;;;;4953799;28;20235;-85
2022/12/08 04:40:11;;;;;;;7.93;7.20;;;;;;;;;;4940517;28;20613;-86
2022/12/08 04:42:36;;;;;;;8.07;7.27;;;;;;;;;;4937728;28;20245;-83
2022/12/08 04:45:11;;;;;;;8.13;7.43;;;;;;;;;;5081403;22;20617;-86
2022/12/08 04:47:37;;;;;;;6.80;6.30;;;;;;;;;;4990030;28;20220;-81
2022/12/08 04:50:03;;;;;;;7.43;6.83;;;;;;;;;;4987080;28;20212;-80
2022/12/08 04:52:29;;;;;;;7.00;6.50;;;;;;;;;;4993055;28;20223;-81
2022/12/08 04:54:54;;;;;;;7.67;6.60;;;;;;;;;;5016453;28;20597;-78
2022/12/08 04:57:22;;;;;;;6.17;5.77;;;;;;;;;;5052864;28;20219;-79
2022/12/08 04:59:48;;;;;;;6.03;5.53;;;;;;;;;;5046660;28;21490;-79
2022/12/08 05:02:13;;;;;;;5.50;5.07;;;;;;;;;;5028882;28;20609;-80
2022/12/08 05:04:39;;;;;;;5.40;5.00;;;;;;;;;;5032915;28;20230;-80
2022/12/08 05:07:08;;;;;;;6.13;5.73;;;;;;;;;;5070092;28;20852;-80
2022/12/08 05:09:33;;;;;;;5.80;5.40;;;;;;;;;;5005956;28;20206;-81
2022/12/08 05:12:01;;;;;;;6.47;5.87;;;;;;;;;;5001963;28;20230;-80
2022/12/08 05:14:26;;;;;;;6.57;5.97;;;;;;;;;;5033203;28;20223;-80
2022/12/08 05:16:52;;;;;;;6.33;5.80;;;;;;;;;;5034151;28;20280;-79
2022/12/08 05:19:21;;;;;;;6.53;5.93;;;;;;;;;;5042794;28;20273;-78
2022/12/08 05:21:46;;;;;;;6.97;6.47;;;;;;;;;;5001688;28;20215;-79
2022/12/08 05:24:12;;;;;;;7.47;6.77;;;;;;;;;;5051454;28;20238;-80
2022/12/08 05:26:40;;;;;;;7.80;7.03;;;;;;;;;;5042145;28;20226;-79
2022/12/08 05:29:05;;;;;;;8.33;7.63;;;;;;;;;;5040434;28;20212;-80
2022/12/08 05:31:33;;;;;;;7.53;6.83;;;;;;;;;;5029919;28;20230;-80
2022/12/08 05:33:59;;;;;;;8.17;7.47;;;;;;;;;;5017776;28;20215;-80
2022/12/08 05:36:27;;;;;;;8.00;7.30;;;;;;;;;;5013543;28;20207;-81
2022/12/08 05:38:55;;;;;;;8.70;7.97;;;;;;;;;;5028115;28;20219;-81
2022/12/08 05:41:25;;;;;;;8.80;8.00;;;;;;;;;;5023439;28;20743;-80
2022/12/08 05:44:00;;;;;;;8.93;8.13;;;;;;;;;;5021659;28;20650;-79
2022/12/08 05:46:25;;;;;;;8.17;7.57;;;;;;;;;;5009159;28;20226;-78
2022/12/08 05:48:53;;;;;;;9.73;8.83;;;;;;;;;;5028103;28;20770;-82
2022/12/08 05:51:21;;;;;;;9.40;8.60;;;;;;;;;;5027985;28;20250;-80
2022/12/08 05:53:49;;;;;;;8.70;8.00;;;;;;;;;;4997681;28;20270;-79
2022/12/08 05:56:15;;;;;;;8.23;7.63;;;;;;;;;;5015046;28;20227;-81
2022/12/08 05:58:43;;;;;;;8.30;7.63;;;;;;;;;;5008830;28;20230;-80
2022/12/08 06:01:21;;;;;;;8.67;7.87;;;;;;;;;;5005933;28;20211;-77
2022/12/08 06:03:47;;;;;;;8.17;7.43;;;;;;;;;;5013182;28;20227;-79
2022/12/08 06:06:12;;;;;;;8.17;7.47;;;;;;;;;;5010990;28;20600;-79
2022/12/08 06:08:41;;;;;;;8.73;7.90;;;;;;;;;;4995102;28;20316;-81
2022/12/08 06:11:07;;;;;;;8.33;7.63;;;;;;;;;;5031104;28;20269;-79
2022/12/08 06:13:38;;;;;;;8.33;7.60;;;;;;;;;;5030993;28;20231;-81
2022/12/08 06:16:05;;;;;;;8.83;8.13;;;;;;;;;;5004470;28;20318;-81
2022/12/08 06:18:30;;;;;;;8.53;7.93;;;;;;;;;;5000154;28;20216;-81
2022/12/08 06:21:04;;;;;;;8.27;7.57;;;;;;;;;;5001731;28;20219;-79
2022/12/08 06:23:32;;;;;;;8.10;7.40;;;;;;;;;;5014070;28;20242;-78
2022/12/08 06:26:07;;;;;;;8.70;7.90;;;;;;;;;;5006112;28;20596;-81
2022/12/08 06:28:33;;;;;;;8.57;7.77;;;;;;;;;;5029986;28;20239;-80
2022/12/08 06:30:58;;;;;;;8.10;7.40;;;;;;;;;;5004504;28;20235;-77
2022/12/08 06:33:26;;;;;;;8.27;7.50;;;;;;;;;;5002087;28;20231;-81
2022/12/08 06:35:52;;;;;;;8.77;8.00;;;;;;;;;;5034518;28;20691;-79
2022/12/08 06:38:17;;;;;;;8.90;7.43;;;;;;;;;;5027962;28;20218;-80
2022/12/08 06:40:43;;;;;;;8.07;7.47;;;;;;;;;;4999292;28;20740;-80
2022/12/08 06:43:08;;;;;;;8.33;7.53;;;;;;;;;;5013372;28;20708;-77
2022/12/08 06:45:36;;;;;;;8.33;7.53;;;;;;;;;;4982520;28;20232;-80
2022/12/08 06:48:02;;;;;;;9.63;8.27;;;;;;;;;;5049632;28;20238;-78
2022/12/08 06:50:28;;;;;;;8.50;7.80;;;;;;;;;;5005018;28;20606;-81
2022/12/08 06:52:55;;;;;;;8.00;7.33;;;;;;;;;;5019553;28;20223;-80
2022/12/08 06:55:23;;;;;;;8.03;7.43;;;;;;;;;;5019572;28;20298;-81
2022/12/08 06:57:51;;;;;;;8.43;7.63;;;;;;;;;;5036249;28;20227;-79
2022/12/08 07:00:17;;;;;;;8.00;7.27;;;;;;;;;;4997179;28;20306;-79
2022/12/08 07:02:42;;;;;;;7.57;6.97;;;;;;;;;;5020230;28;20287;-82
2022/12/08 07:05:10;;;;;;;7.60;7.00;;;;;;;;;;5024007;28;20233;-79
2022/12/08 07:07:36;;;;;;;7.40;6.80;;;;;;;;;;5003722;28;20223;-80
2022/12/08 07:10:05;;;;;;;7.50;6.90;;;;;;;;;;4986770;28;20246;-80
2022/12/08 07:12:30;;;;;;;6.37;5.87;;;;;;;;;;5013671;28;20351;-82
2022/12/08 07:14:56;;;;;;;6.40;5.93;;;;;;;;;;5020352;28;20699;-78
2022/12/08 07:17:21;;;;;;;6.87;6.37;;;;;;;;;;4997110;28;20991;-79
2022/12/08 07:19:49;;;;;;;6.93;6.40;;;;;;;;;;4996473;28;20281;-79
2022/12/08 07:22:15;;;;;;;7.07;6.47;;;;;;;;;;5007657;28;20831;-79
2022/12/08 07:24:43;;;;;;;6.60;6.20;;;;;;;;;;5010276;28;20244;-80
2022/12/08 07:27:11;;;;;;;7.57;6.97;;;;;;;;;;4982566;28;20227;-79
2022/12/08 07:29:39;;;;;;;7.43;6.73;;;;;;;;;;5014362;28;20215;-80
2022/12/08 07:32:06;;;;;;;6.97;6.37;;;;;;;;;;5012933;28;20573;-80
2022/12/08 07:34:34;;;;;;;7.63;6.97;;;;;;;;;;5018250;28;20228;-79
2022/12/08 07:37:00;;;;;;;8.33;7.67;;;;;;;;;;4995106;28;20256;-77
2022/12/08 07:39:35;;;;;;;7.77;7.17;;;;;;;;;;5016456;28;20294;-77
2022/12/08 07:42:03;;;;;;;6.93;6.43;;;;;;;;;;5000312;28;20254;-82
2022/12/08 07:44:28;;;;;;;9.27;8.50;;;;;;;;;;5018846;28;20228;-82
2022/12/08 07:46:59;;;;;;;7.40;6.90;;;;;;;;;;5008015;28;20606;-81
2022/12/08 07:49:25;;;;;;;7.07;6.57;;;;;;;;;;5041705;28;20226;-78
2022/12/08 07:52:03;;;;;;;7.50;6.97;;;;;;;;;;5030332;28;20219;-79
2022/12/08 07:54:33;;;;;;;7.40;6.80;;;;;;;;;;5013491;28;20714;-82
2022/12/08 07:56:59;;;;;;;8.10;7.50;;;;;;;;;;5034636;28;20216;-82
2022/12/08 07:59:25;;;;;;;6.97;6.33;;;;;;;;;;5015966;28;20249;-82
2022/12/08 08:01:51;;;;;;;7.77;7.10;;;;;;;;;;5031919;28;20286;-78
2022/12/08 08:04:16;;;;;;;7.30;6.70;;;;;;;;;;4982743;28;20748;-80
2022/12/08 08:06:44;;;;;;;7.13;6.53;;;;;;;;;;4994050;28;20220;-79
2022/12/08 08:09:10;;;;;;;7.33;6.73;;;;;;;;;;5000610;28;20212;-75
2022/12/08 08:11:38;;;;;;;6.40;5.90;;;;;;;;;;4998591;28;20617;-78
2022/12/08 08:14:03;;;;;;;7.60;6.90;;;;;;;;;;5026226;28;20223;-76
2022/12/08 08:16:29;;;;;;;7.70;7.10;;;;;;;;;;4995595;28;20235;-78
2022/12/08 08:18:55;;;;;;;7.50;7.00;;;;;;;;;;4992836;28;20230;-76
2022/12/08 08:21:20;;;;;;;7.60;7.07;;;;;;;;;;4986417;28;20242;-76
2022/12/08 08:23:46;;;;;;;7.40;6.90;;;;;;;;;;5012234;28;20275;-77
2022/12/08 08:26:12;;;;;;;7.77;7.07;;;;;;;;;;4990692;28;20251;-77
2022/12/08 08:28:37;;;;;;;7.37;6.87;;;;;;;;;;4994491;28;20319;-76
2022/12/08 08:31:04;;;;;;;8.37;7.67;;;;;;;;;;5006949;28;20225;-78
2022/12/08 08:33:31;;;;;;;7.83;7.13;;;;;;;;;;4983213;28;20239;-78
2022/12/08 08:36:10;;;;;;;7.80;7.20;;;;;;;;;;5019489;28;20223;-77
2022/12/08 08:38:38;;;;;;;7.43;6.73;;;;;;;;;;5014389;28;20223;-74
2022/12/08 08:41:11;;;;;;;7.07;6.40;;;;;;;;;;5008582;28;20315;-77
2022/12/08 08:43:36;;;;;;;8.47;6.97;;;;;;;;;;5007142;28;20885;-76
2022/12/08 08:46:05;;;;;;;10.30;7.07;;;;;;;;;;5008942;28;20325;-79
2022/12/08 08:48:30;;;;;;;7.10;6.53;;;;;;;;;;4986864;28;20295;-79
2022/12/08 08:51:07;;;;;;;7.90;7.20;;;;;;;;;;5022901;28;20215;-76
2022/12/08 08:53:35;;;;;;;7.53;6.80;;;;;;;;;;5004725;28;20223;-78
2022/12/08 08:56:00;;;;;;;7.30;6.70;;;;;;;;;;5004157;28;20231;-77
2022/12/08 08:58:32;;;;;;;7.23;6.73;;;;;;;;;;5001925;28;20310;-78
2022/12/08 09:00:58;;;;;;;7.07;6.47;;;;;;;;;;5003037;28;20226;-79
2022/12/08 09:03:24;;;;;;;7.10;6.60;;;;;;;;;;5025052;28;20231;-78
2022/12/08 09:05:50;;;;;;;6.90;6.40;;;;;;;;;;5019882;28;20246;-78
2022/12/08 09:08:18;;;;;;;7.37;6.80;;;;;;;;;;5021134;28;20250;-78
2022/12/08 09:10:43;;;;;;;7.00;6.50;;;;;;;;;;4992635;28;20273;-78
2022/12/08 09:13:09;;;;;;;6.37;5.97;;;;;;;;;;5003976;28;20227;-78
2022/12/08 09:15:37;;;;;;;6.17;5.67;;;;;;;;;;5001496;28;20223;-77
2022/12/08 09:18:02;;;;;;;6.00;5.50;;;;;;;;;;4996874;28;20224;-79
2022/12/08 09:20:34;;;;;;;6.30;5.80;;;;;;;;;;4998734;28;20219;-79
2022/12/08 09:23:01;;;;;;;6.07;5.57;;;;;;;;;;4981373;28;20238;-80
2022/12/08 09:25:28;;;;;;;6.67;6.07;;;;;;;;;;5011510;28;20251;-77
2022/12/08 09:27:54;;;;;;;5.87;5.43;;;;;;;;;;4993987;28;20226;-79
2022/12/08 09:30:22;;;;;;;6.03;5.53;;;;;;;;;;5010536;28;20273;-77
2022/12/08 09:32:48;;;;;;;5.70;5.20;;;;;;;;;;5012757;28;20251;-78
2022/12/08 09:35:16;;;;;;;5.20;4.83;;;;;;;;;;5013374;28;20223;-77
2022/12/08 09:37:42;;;;;;;6.30;5.70;;;;;;;;;;5015028;28;20226;-79
2022/12/08 09:40:14;;;;;;;4.73;4.33;;;;;;;;;;5001157;28;22988;-79
2022/12/08 09:42:52;;;;;;;4.43;4.13;;;;;;;;;;5014401;28;20224;-77
2022/12/08 09:45:18;;;;;;;4.77;4.47;;;;;;;;;;5032472;28;20223;-78
2022/12/08 09:47:53;;;;;;;7.40;5.83;;;;;;;;;;5000707;28;20220;-79
2022/12/08 09:50:34;;;;;;;4.27;3.90;;;;;;;;;;5039772;28;20223;-79
2022/12/08 09:53:27;;;;;;;3.70;3.40;;;;;;;;;;5011325;28;20243;-78
2022/12/08 09:55:57;;;;;;;3.47;3.23;;;;;;;;;;5044351;28;20251;-78
2022/12/08 09:58:38;;;;;;;4.07;3.67;;;;;;;;;;5044446;28;20238;-78
2022/12/08 10:01:06;;;;;;;4.13;3.83;;;;;;;;;;5044262;28;21876;-78
2022/12/08 10:03:34;;;;;;;4.63;4.23;;;;;;;;;;5043015;28;20299;-80
2022/12/08 10:06:02;;;;;;;4.40;4.10;;;;;;;;;;5026917;28;21049;-77
2022/12/08 10:09:05;;;;;;;4.23;3.93;;;;;;;;;;5029203;28;20223;-77
2022/12/08 10:11:56;;;;;;;4.77;4.10;;;;;;;;;;5017142;28;20248;-80
2022/12/08 10:14:33;;;;;;;3.50;3.30;;;;;;;;;;5034654;28;20712;-78
2022/12/08 10:17:43;;;;;;;4.77;3.70;;;;;;;;;;5011958;28;20301;-77
2022/12/08 10:20:17;;;;;;;4.13;3.83;;;;;;;;;;5024987;28;20276;-78
2022/12/08 10:22:45;;;;;;;8.77;4.70;;;;;;;;;;5000492;28;20223;-80
2022/12/08 10:25:17;;;;;;;4.93;4.10;;;;;;;;;;5007714;28;20222;-79
2022/12/08 10:27:43;;;;;;;4.13;3.83;;;;;;;;;;5033651;28;20216;-79
2022/12/08 10:30:12;;;;;;;3.80;3.50;;;;;;;;;;4986639;28;20239;-80
2022/12/08 10:32:37;;;;;;;4.07;3.67;;;;;;;;;;5007977;28;20225;-80
2022/12/08 10:35:10;;;;;;;5.30;3.30;;;;;;;;;;5038506;28;20320;-81
2022/12/08 10:37:38;;;;;;;3.50;3.20;;;;;;;;;;5031912;28;20215;-80
2022/12/08 10:40:12;;;;;;;3.30;3.10;;;;;;;;;;5023536;28;20216;-81
2022/12/08 10:42:56;;;;;;;3.40;3.20;;;;;;;;;;5003909;28;20310;-80
2022/12/08 10:45:46;;;;;;;3.40;3.20;;;;;;;;;;5018788;28;20245;-79
2022/12/08 10:48:13;;;;;;;3.40;3.10;;;;;;;;;;5008684;28;20310;-78
2022/12/08 10:51:04;;;;;;;4.03;2.77;;;;;;;;;;5019786;28;20366;-80
2022/12/08 10:53:35;;;;;;;2.80;2.60;;;;;;;;;;5033420;28;20881;-78
2022/12/08 10:56:00;;;;;;;2.90;2.70;;;;;;;;;;4992734;23;20414;-77
2022/12/08 10:58:45;;;;;;;2.90;2.70;;;;;;;;;;4988495;28;20232;-78
2022/12/08 11:01:20;;;;;;;2.10;2.00;;;;;;;;;;4965109;28;20305;-77
2022/12/08 11:03:49;;;;;;;2.07;1.93;;;;;;;;;;4994836;28;20267;-77
2022/12/08 11:06:37;;;;;;;2.10;2.00;;;;;;;;;;5006068;28;20243;-78
2022/12/08 11:09:03;;;;;;;2.10;2.00;;;;;;;;;;5012302;28;20233;-78
2022/12/08 11:11:52;;;;;;;2.20;2.10;;;;;;;;;;5007046;28;20263;-77
2022/12/08 11:14:31;;;;;;;2.70;2.47;;;;;;;;;;4963501;28;20239;-78
2022/12/08 11:17:12;;;;;;;2.40;2.30;;;;;;;;;;4991163;28;20625;-76
2022/12/08 11:20:00;;;;;;;2.07;1.97;;;;;;;;;;5015254;28;20225;-76
2022/12/08 11:22:40;;;;;;;2.30;2.20;;;;;;;;;;4990846;28;20248;-77
2022/12/08 11:25:11;;;;;;;2.40;2.20;;;;;;;;;;4999400;28;20225;-76
2022/12/08 11:27:39;;;;;;;2.20;2.10;;;;;;;;;;5009925;28;20228;-75
2022/12/08 11:30:16;;;;;;;2.60;2.27;;;;;;;;;;4971356;28;21032;-76
2022/12/08 11:32:53;;;;;;;3.23;2.00;;;;;;;;;;5000143;28;20231;-77
2022/12/08 11:35:27;;;;;;;2.13;2.03;;;;;;;;;;4972509;28;20250;-77
2022/12/08 11:37:59;;;;;;;2.20;2.00;;;;;;;;;;5008826;28;20224;-77
2022/12/08 11:40:28;;;;;;;2.00;1.90;;;;;;;;;;4990918;28;20224;-76
2022/12/08 11:43:02;;;;;;;2.13;2.03;;;;;;;;;;4959956;28;20618;-75
2022/12/08 11:45:30;;;;;;;2.80;2.00;;;;;;;;;;4985429;28;21571;-79
2022/12/08 11:48:07;;;;;;;2.10;2.00;;;;;;;;;;4990237;28;20230;-78
2022/12/08 11:50:51;;;;;;;2.57;2.37;;;;;;;;;;4994291;28;20226;-76
2022/12/08 11:53:29;;;;;;;2.07;1.97;;;;;;;;;;4961266;28;20228;-75
2022/12/08 11:55:59;;;;;;;1.83;1.73;;;;;;;;;;4974883;28;20231;-80
2022/12/08 11:58:38;;;;;;;2.33;2.13;;;;;;;;;;4969196;28;20224;-76
2022/12/08 12:01:06;;;;;;;2.57;2.37;;;;;;;;;;5005670;28;20771;-77
2022/12/08 12:03:35;;;;;;;2.63;2.43;;;;;;;;;;4986355;28;21269;-76
2022/12/08 12:06:35;;;;;;;2.73;2.53;;;;;;;;;;4969087;28;20239;-76
2022/12/08 12:09:04;;;;;;;2.67;2.47;;;;;;;;;;4992341;28;20225;-77
2022/12/08 12:14:40;;;;;;;3.17;2.43;;;;;;;;;;5017039;28;20251;-78
2022/12/08 12:17:09;;;;;;;2.40;2.27;;;;;;;;;;4999055;28;20239;-78
2022/12/08 12:19:36;;;;;;;2.70;2.50;;;;;;;;;;4998981;28;20247;-77
2022/12/08 12:22:12;;;;;;;3.43;2.10;;;;;;;;;;4982395;28;20741;-79
2022/12/08 12:24:44;;;;;;;2.50;2.30;;;;;;;;;;4995596;28;20254;-77
2022/12/08 12:27:12;;;;;;;5.23;2.17;;;;;;;;;;4994522;28;20220;-76
2022/12/08 12:29:58;;;;;;;2.53;2.33;;;;;;;;;;5020128;28;20233;-80
2022/12/08 12:32:23;;;;;;;3.30;1.70;;;;;;;;;;4988626;28;20267;-75
2022/12/08 12:34:58;;;;;;;2.00;1.90;;;;;;;;;;4990311;28;20228;-79
2022/12/08 12:37:42;;;;;;;2.40;2.20;;;;;;;;;;5005095;28;21558;-79
2022/12/08 12:40:20;;;;;;;2.07;1.93;;;;;;;;;;4997838;28;21754;-78
2022/12/08 12:42:54;;;;;;;1.80;1.70;;;;;;;;;;5017285;28;20240;-79
2022/12/08 12:45:20;;;;;;;2.23;1.83;;;;;;;;;;5020380;28;20231;-80
2022/12/08 12:48:11;;;;;;;2.23;2.00;;;;;;;;;;5003718;28;20228;-80
2022/12/08 12:50:46;;;;;;;5.43;2.00;;;;;;;;;;4971936;28;20339;-79
2022/12/08 12:53:15;;;;;;;1.87;1.77;;;;;;;;;;4968819;28;20323;-79
2022/12/08 12:55:55;;;;;;;3.13;2.30;;;;;;;;;;4989173;28;20278;-77
2022/12/08 12:58:29;;;;;;;3.23;2.50;;;;;;;;;;4994312;28;20772;-79
2022/12/08 13:01:07;;;;;;;2.60;2.40;;;;;;;;;;4998717;28;20935;-80
2022/12/08 13:03:33;;;;;;;2.97;2.73;;;;;;;;;;5014767;28;20232;-78
2022/12/08 13:05:59;;;;;;;3.17;2.87;;;;;;;;;;5019754;28;20220;-78
2022/12/08 13:08:25;;;;;;;4.07;3.67;;;;;;;;;;4999284;28;20224;-79
2022/12/08 13:11:04;;;;;;;4.33;3.97;;;;;;;;;;4999970;28;20222;-77
2022/12/08 13:13:34;;;;;;;3.90;3.50;;;;;;;;;;4996995;28;20225;-77
2022/12/08 13:16:08;;;;;;;3.63;3.43;;;;;;;;;;4992864;28;20237;-76
2022/12/08 13:18:36;;;;;;;3.17;2.87;;;;;;;;;;5015649;28;20227;-78
2022/12/08 13:21:08;;;;;;;3.57;3.27;;;;;;;;;;5012197;28;20319;-77
2022/12/08 13:23:37;;;;;;;6.27;4.00;;;;;;;;;;5019581;28;20225;-75
2022/12/08 13:26:13;;;;;;;4.07;3.77;;;;;;;;;;5012956;28;20611;-75
2022/12/08 13:28:57;;;;;;;3.43;3.23;;;;;;;;;;4998392;28;20230;-77
2022/12/08 13:31:45;;;;;;;4.27;3.77;;;;;;;;;;5003427;28;20233;-76
2022/12/08 13:34:15;;;;;;;4.77;4.37;;;;;;;;;;5002266;28;20576;-77
2022/12/08 13:36:51;;;;;;;4.53;4.13;;;;;;;;;;5019683;28;20224;-76
2022/12/08 13:39:23;;;;;;;4.10;3.80;;;;;;;;;;4997312;28;20679;-76
2022/12/08 13:41:57;;;;;;;4.20;3.80;;;;;;;;;;4998923;28;20219;-78
2022/12/08 13:44:28;;;;;;;5.13;4.73;;;;;;;;;;4988631;28;20252;-78
2022/12/08 13:46:56;;;;;;;7.97;7.17;;;;;;;;;;4981747;28;20307;-78
2022/12/08 13:49:25;;;;;;;14.40;13.03;;;;;;;;;;4999797;28;20300;-78
2022/12/08 13:51:50;;;;;;;10.27;8.87;;;;;;;;;;4997950;28;20236;-79
2022/12/08 13:54:49;;;;;;;6.10;5.57;;;;;;;;;;4989445;28;20212;-78
2022/12/08 13:57:23;;;;;;;5.00;4.47;;;;;;;;;;4929874;28;20227;-78
2022/12/08 13:59:51;;;;;;;4.43;4.10;;;;;;;;;;4998219;28;20224;-77
2022/12/08 14:02:25;;;;;;;5.43;4.60;;;;;;;;;;4973361;28;20229;-77
2022/12/08 14:04:53;;;;;;;4.60;4.30;;;;;;;;;;5013240;28;20330;-80
2022/12/08 14:07:19;;;;;;;7.27;3.93;;;;;;;;;;4977417;28;20235;-77
2022/12/08 14:09:47;;;;;;;3.80;3.50;;;;;;;;;;4981993;28;20228;-75
2022/12/08 14:12:22;;;;;;;5.80;5.20;;;;;;;;;;4977809;28;20230;-77
2022/12/08 14:14:52;;;;;;;5.07;4.50;;;;;;;;;;4986638;28;20224;-78
2022/12/08 14:17:24;;;;;;;4.40;4.00;;;;;;;;;;4970179;28;20231;-77
2022/12/08 14:20:12;;;;;;;4.00;3.70;;;;;;;;;;5002200;28;20652;-76
2022/12/08 14:22:40;;;;;;;4.30;4.00;;;;;;;;;;4990834;28;20245;-77
2022/12/08 14:25:12;;;;;;;3.83;3.47;;;;;;;;;;5005121;28;20654;-76
2022/12/08 14:27:38;;;;;;;4.40;4.00;;;;;;;;;;4973991;28;20216;-77
2022/12/08 14:30:29;;;;;;;4.40;4.00;;;;;;;;;;4982570;28;20539;-80
2022/12/08 14:32:57;;;;;;;5.60;5.13;;;;;;;;;;4987191;28;20220;-77
2022/12/08 14:35:27;;;;;;;8.03;6.90;;;;;;;;;;4999008;28;20858;-79
2022/12/08 14:38:02;;;;;;;7.07;6.40;;;;;;;;;;4988358;28;20614;-79
2022/12/08 14:40:35;;;;;;;10.70;9.67;;;;;;;;;;5020209;28;20231;-79
2022/12/08 14:43:09;;;;;;;11.67;10.57;;;;;;;;;;4996514;28;20304;-78
2022/12/08 14:45:44;;;;;;;15.10;13.67;;;;;;;;;;5013429;28;21757;-79
2022/12/08 14:48:23;;;;;;;13.20;11.77;;;;;;;;;;5022452;28;20220;-79
2022/12/08 14:51:11;;;;;;;11.20;10.17;;;;;;;;;;5007313;28;20251;-80
2022/12/08 14:53:45;;;;;;;7.43;6.47;;;;;;;;;;5006762;28;20224;-79
2022/12/08 14:56:34;;;;;;;5.53;5.13;;;;;;;;;;5023647;28;20250;-79
2022/12/08 14:59:14;;;;;;;5.90;5.20;;;;;;;;;;5006038;28;20278;-78
2022/12/08 15:01:40;;;;;;;5.50;5.03;;;;;;;;;;4993945;28;20244;-77
2022/12/08 15:04:08;;;;;;;5.80;5.40;;;;;;;;;;5015797;28;20733;-78
2022/12/08 15:06:38;;;;;;;5.53;4.80;;;;;;;;;;4981153;28;20216;-78
2022/12/08 15:09:26;;;;;;;4.93;4.33;;;;;;;;;;4996239;28;21109;-78
2022/12/08 15:12:19;;;;;;;5.30;4.90;;;;;;;;;;4986968;28;20233;-76
2022/12/08 15:14:55;;;;;;;6.43;5.83;;;;;;;;;;4980688;28;20251;-78
2022/12/08 15:17:39;;;;;;;5.03;4.63;;;;;;;;;;5006002;28;20231;-78